createdAt,value
2018-08-13T00:00:27.205Z,0
2018-08-13T00:01:28.180Z,0
2018-08-13T00:02:28.890Z,0
2018-08-13T00:03:29.660Z,0
2018-08-13T00:04:30.376Z,0
2018-08-13T00:05:31.356Z,0
2018-08-13T00:06:32.064Z,0
2018-08-13T00:07:32.784Z,0
2018-08-13T00:08:33.749Z,0
2018-08-13T00:09:34.462Z,0
2018-08-13T00:10:35.182Z,0
2018-08-13T00:11:35.924Z,0
2018-08-13T00:12:36.640Z,0
2018-08-13T00:13:37.365Z,0
2018-08-13T00:14:38.460Z,0
2018-08-13T00:15:39.177Z,0
2018-08-13T00:16:39.902Z,0
2018-08-13T00:17:40.700Z,0
2018-08-13T00:18:41.336Z,0
2018-08-13T00:19:42.060Z,0
2018-08-13T00:20:42.764Z,0
2018-08-13T00:21:43.492Z,0
2018-08-13T00:22:44.221Z,0
2018-08-13T00:23:44.936Z,0
2018-08-13T00:24:45.659Z,0
2018-08-13T00:25:46.381Z,0
2018-08-13T00:26:47.100Z,0
2018-08-13T00:27:48.082Z,0
2018-08-13T00:28:48.793Z,0
2018-08-13T00:29:49.762Z,0
2018-08-13T00:30:50.473Z,0
2018-08-13T00:31:51.452Z,0
2018-08-13T00:32:52.173Z,0
2018-08-13T00:33:52.907Z,0
2018-08-13T00:34:53.617Z,0
2018-08-13T00:35:54.340Z,0
2018-08-13T00:36:55.314Z,0
2018-08-13T00:37:56.038Z,0
2018-08-13T00:38:56.759Z,0
2018-08-13T00:39:57.482Z,0
2018-08-13T00:40:58.227Z,0
2018-08-13T00:41:58.945Z,0
2018-08-13T00:42:59.663Z,0
2018-08-13T00:44:00.395Z,0
2018-08-13T00:45:01.114Z,0
2018-08-13T00:46:01.832Z,0
2018-08-13T00:47:02.550Z,0
2018-08-13T00:48:03.271Z,0
2018-08-13T00:49:03.994Z,0
2018-08-13T00:50:04.713Z,0
2018-08-13T00:51:05.439Z,0
2018-08-13T00:52:06.179Z,0
2018-08-13T00:53:06.898Z,0
2018-08-13T00:54:07.622Z,0
2018-08-13T00:55:08.330Z,0
2018-08-13T00:56:09.064Z,0
2018-08-13T00:57:09.793Z,0
2018-08-13T00:58:10.514Z,0
2018-08-13T00:59:11.241Z,0
2018-08-13T01:00:12.029Z,0
2018-08-13T01:01:13.007Z,0
2018-08-13T01:02:13.717Z,0
2018-08-13T01:03:14.688Z,0
2018-08-13T01:04:15.406Z,0
2018-08-13T01:05:16.169Z,0
2018-08-13T01:07:18.553Z,0
2018-08-13T01:08:19.264Z,0
2018-08-13T01:09:20.244Z,0
2018-08-13T01:10:20.961Z,0
2018-08-13T01:11:21.688Z,0
2018-08-13T01:12:22.406Z,0
2018-08-13T01:13:23.144Z,0
2018-08-13T01:14:23.857Z,0
2018-08-13T01:15:24.575Z,0
2018-08-13T01:16:25.307Z,0
2018-08-13T01:17:26.057Z,0
2018-08-13T01:18:26.785Z,0
2018-08-13T01:19:27.512Z,0
2018-08-13T01:20:28.231Z,0
2018-08-13T01:21:28.958Z,0
2018-08-13T01:22:29.678Z,0
2018-08-13T01:23:30.670Z,0
2018-08-13T01:24:31.393Z,0
2018-08-13T01:25:32.115Z,0
2018-08-13T01:26:32.836Z,0
2018-08-13T01:27:33.560Z,0
2018-08-13T01:28:34.308Z,0
2018-08-13T01:29:35.039Z,0
2018-08-13T01:30:35.807Z,0
2018-08-13T01:31:36.546Z,0
2018-08-13T01:32:37.254Z,0
2018-08-13T01:33:38.220Z,0
2018-08-13T01:34:38.950Z,0
2018-08-13T01:35:39.717Z,0
2018-08-13T01:36:40.452Z,0
2018-08-13T01:37:41.429Z,0
2018-08-13T01:38:42.162Z,0
2018-08-13T01:39:42.875Z,0
2018-08-13T01:40:43.612Z,0
2018-08-13T01:41:44.333Z,0
2018-08-13T01:42:45.323Z,0
2018-08-13T01:43:46.295Z,0
2018-08-13T01:44:47.019Z,0
2018-08-13T01:45:47.736Z,0
2018-08-13T01:46:48.802Z,0
2018-08-13T01:47:49.524Z,0
2018-08-13T01:48:50.242Z,0
2018-08-13T01:49:51.229Z,0
2018-08-13T01:50:51.954Z,0
2018-08-13T01:51:53.033Z,0
2018-08-13T01:52:53.765Z,0
2018-08-13T01:53:54.510Z,0
2018-08-13T01:54:55.229Z,0
2018-08-13T01:55:56.465Z,0
2018-08-13T01:56:57.234Z,0
2018-08-13T01:57:58.212Z,0
2018-08-13T01:58:58.933Z,0
2018-08-13T01:59:59.651Z,0
2018-08-13T02:01:00.367Z,0
2018-08-13T02:02:01.133Z,0
2018-08-13T02:03:01.861Z,0
2018-08-13T02:04:02.585Z,0
2018-08-13T02:05:03.317Z,0
2018-08-13T02:06:04.297Z,0
2018-08-13T02:07:05.063Z,0
2018-08-13T02:08:05.783Z,0
2018-08-13T02:09:06.768Z,0
2018-08-13T02:10:07.486Z,0
2018-08-13T02:11:08.205Z,0
2018-08-13T02:12:08.939Z,0
2018-08-13T02:13:09.668Z,0
2018-08-13T02:14:10.390Z,0
2018-08-13T02:15:11.106Z,0
2018-08-13T02:16:11.828Z,0
2018-08-13T02:17:12.549Z,0
2018-08-13T02:18:13.271Z,0
2018-08-13T02:19:14.240Z,0
2018-08-13T02:20:14.985Z,0
2018-08-13T02:21:15.700Z,0
2018-08-13T02:22:16.428Z,0
2018-08-13T02:23:17.144Z,0
2018-08-13T02:24:17.860Z,0
2018-08-13T02:25:18.589Z,0
2018-08-13T02:26:19.313Z,0
2018-08-13T02:27:20.046Z,0
2018-08-13T02:28:20.767Z,0
2018-08-13T02:29:21.500Z,0
2018-08-13T02:30:22.224Z,0
2018-08-13T02:31:22.938Z,0
2018-08-13T02:32:23.663Z,0
2018-08-13T02:33:24.382Z,0
2018-08-13T02:34:25.092Z,0
2018-08-13T02:35:26.062Z,0
2018-08-13T02:36:26.786Z,0
2018-08-13T02:37:27.506Z,0
2018-08-13T02:38:28.228Z,0
2018-08-13T02:39:28.956Z,0
2018-08-13T02:40:29.675Z,0
2018-08-13T02:41:30.416Z,0
2018-08-13T02:42:31.387Z,0
2018-08-13T02:43:32.093Z,0
2018-08-13T02:44:32.825Z,0
2018-08-13T02:45:33.541Z,0
2018-08-13T02:46:34.262Z,0
2018-08-13T02:47:34.983Z,0
2018-08-13T02:48:35.712Z,0
2018-08-13T02:49:36.440Z,0
2018-08-13T02:50:37.165Z,0
2018-08-13T02:51:37.882Z,0
2018-08-13T02:52:38.609Z,0
2018-08-13T02:53:39.327Z,0
2018-08-13T02:54:40.294Z,0
2018-08-13T02:55:41.013Z,0
2018-08-13T02:56:41.737Z,0
2018-08-13T02:57:42.470Z,0
2018-08-13T02:58:43.478Z,0
2018-08-13T02:59:44.168Z,0
2018-08-13T03:00:44.928Z,0
2018-08-13T03:01:45.654Z,0
2018-08-13T03:02:46.374Z,0
2018-08-13T03:03:47.102Z,0
2018-08-13T03:04:47.866Z,0
2018-08-13T03:05:48.600Z,0
2018-08-13T03:06:49.327Z,0
2018-08-13T03:07:50.072Z,0
2018-08-13T03:08:50.782Z,0
2018-08-13T03:09:51.502Z,0
2018-08-13T03:10:52.574Z,0
2018-08-13T03:11:53.292Z,0
2018-08-13T03:12:54.275Z,0
2018-08-13T03:13:54.997Z,0
2018-08-13T03:14:55.734Z,0
2018-08-13T03:15:56.551Z,0
2018-08-13T03:16:57.357Z,0
2018-08-13T03:17:58.096Z,0
2018-08-13T03:20:14.394Z,0
2018-08-13T03:21:15.418Z,0
2018-08-13T03:23:31.720Z,0
2018-08-13T03:24:32.533Z,0
2018-08-13T03:25:33.793Z,0
2018-08-13T03:26:34.616Z,0
2018-08-13T03:27:35.654Z,0
2018-08-13T03:28:36.422Z,0
2018-08-13T03:30:52.745Z,4
2018-08-13T03:33:28.400Z,4
2018-08-13T03:34:29.081Z,4
2018-08-13T03:35:29.875Z,8
2018-08-13T03:36:30.877Z,4
2018-08-13T03:37:31.717Z,8
2018-08-13T03:38:32.913Z,8
2018-08-13T03:39:33.727Z,12
2018-08-13T03:40:34.551Z,12
2018-08-13T03:41:35.385Z,12
2018-08-13T03:42:36.180Z,16
2018-08-13T03:44:19.630Z,20
2018-08-13T03:45:20.454Z,24
2018-08-13T03:46:21.856Z,28
2018-08-13T03:47:22.647Z,32
2018-08-13T03:48:24.042Z,36
2018-08-13T03:49:25.842Z,44
2018-08-13T03:51:28.405Z,60
2018-08-13T03:52:29.203Z,68
2018-08-13T03:53:29.992Z,76
2018-08-13T03:54:30.775Z,92
2018-08-13T03:55:31.875Z,108
2018-08-13T03:56:32.608Z,128
2018-08-13T03:57:33.830Z,152
2018-08-13T03:58:34.634Z,172
2018-08-13T03:59:35.415Z,196
2018-08-13T04:00:36.192Z,212
2018-08-13T04:02:52.540Z,240
2018-08-13T04:03:53.272Z,248
2018-08-13T04:04:53.987Z,264
2018-08-13T04:05:54.982Z,276
2018-08-13T04:06:55.704Z,296
2018-08-13T04:07:56.703Z,316
2018-08-13T04:08:57.420Z,332
2018-08-13T04:09:58.221Z,352
2018-08-13T04:10:58.941Z,372
2018-08-13T04:11:59.682Z,388
2018-08-13T04:13:01.009Z,408
2018-08-13T04:14:01.733Z,428
2018-08-13T04:15:02.467Z,452
2018-08-13T04:16:03.446Z,468
2018-08-13T04:17:04.227Z,488
2018-08-13T04:18:04.952Z,504
2018-08-13T04:19:05.684Z,524
2018-08-13T04:20:06.411Z,536
2018-08-13T04:21:07.140Z,560
2018-08-13T04:22:07.933Z,580
2018-08-13T04:23:08.665Z,608
2018-08-13T04:24:09.398Z,636
2018-08-13T04:25:10.124Z,672
2018-08-13T04:26:11.376Z,700
2018-08-13T04:27:12.105Z,736
2018-08-13T04:28:12.819Z,764
2018-08-13T04:29:13.547Z,784
2018-08-13T04:30:14.269Z,796
2018-08-13T04:31:15.253Z,812
2018-08-13T04:32:15.970Z,824
2018-08-13T04:33:16.691Z,836
2018-08-13T04:34:17.422Z,856
2018-08-13T04:35:18.192Z,872
2018-08-13T04:36:19.171Z,884
2018-08-13T04:37:19.886Z,904
2018-08-13T04:38:20.611Z,928
2018-08-13T04:39:21.340Z,956
2018-08-13T04:40:22.052Z,988
2018-08-13T04:41:22.789Z,1020
2018-08-13T04:42:23.514Z,1052
2018-08-13T04:43:24.236Z,1092
2018-08-13T04:44:24.965Z,1140
2018-08-13T04:45:25.731Z,1200
2018-08-13T04:46:26.472Z,1272
2018-08-13T04:47:27.189Z,1356
2018-08-13T04:48:27.916Z,1460
2018-08-13T04:49:28.640Z,1568
2018-08-13T04:50:29.355Z,1652
2018-08-13T04:51:30.086Z,1688
2018-08-13T04:52:30.806Z,1700
2018-08-13T04:53:31.532Z,1740
2018-08-13T04:54:32.268Z,1824
2018-08-13T04:55:33.053Z,1928
2018-08-13T04:56:33.780Z,2012
2018-08-13T04:57:34.521Z,2048
2018-08-13T04:58:35.254Z,2060
2018-08-13T04:59:35.998Z,2088
2018-08-13T05:00:36.717Z,2148
2018-08-13T05:01:37.709Z,2204
2018-08-13T05:02:38.426Z,2224
2018-08-13T05:03:39.152Z,2280
2018-08-13T05:04:40.124Z,2344
2018-08-13T05:05:40.858Z,2432
2018-08-13T05:06:41.585Z,2480
2018-08-13T05:07:42.317Z,2492
2018-08-13T05:08:43.039Z,2480
2018-08-13T05:09:43.769Z,2540
2018-08-13T05:10:44.504Z,2624
2018-08-13T05:11:45.224Z,2772
2018-08-13T05:12:46.006Z,2824
2018-08-13T05:13:46.725Z,2688
2018-08-13T05:14:47.453Z,2492
2018-08-13T05:15:48.201Z,2476
2018-08-13T05:16:48.920Z,2632
2018-08-13T05:17:49.704Z,2828
2018-08-13T05:18:50.432Z,3120
2018-08-13T05:19:51.155Z,3260
2018-08-13T05:20:51.889Z,3416
2018-08-13T05:21:52.613Z,3680
2018-08-13T05:22:53.333Z,4012
2018-08-13T05:23:54.067Z,4548
2018-08-13T05:24:55.092Z,5184
2018-08-13T05:25:55.816Z,5752
2018-08-13T05:26:56.800Z,6172
2018-08-13T05:27:57.546Z,6600
2018-08-13T05:28:58.269Z,7004
2018-08-13T05:29:59.013Z,7828
2018-08-13T05:30:59.727Z,8264
2018-08-13T05:32:00.464Z,9656
2018-08-13T05:33:01.192Z,12104
2018-08-13T05:34:02.174Z,10136
2018-08-13T05:35:02.961Z,8604
2018-08-13T05:36:03.687Z,9232
2018-08-13T05:37:04.417Z,8668
2018-08-13T05:38:05.196Z,8328
2018-08-13T05:39:05.878Z,8084
2018-08-13T05:40:06.617Z,8652
2018-08-13T05:41:07.335Z,9356
2018-08-13T05:42:08.080Z,8888
2018-08-13T05:43:08.861Z,8332
2018-08-13T05:44:09.586Z,8452
2018-08-13T05:45:10.314Z,8856
2018-08-13T05:46:11.050Z,9496
2018-08-13T05:47:11.782Z,9964
2018-08-13T05:48:12.516Z,10476
2018-08-13T05:49:13.239Z,10692
2018-08-13T05:50:13.973Z,10836
2018-08-13T05:51:14.766Z,10800
2018-08-13T05:52:15.758Z,10744
2018-08-13T05:53:16.478Z,11084
2018-08-13T05:54:17.209Z,11172
2018-08-13T05:55:17.949Z,11516
2018-08-13T05:56:18.681Z,11536
2018-08-13T05:57:19.433Z,11384
2018-08-13T05:58:20.219Z,11632
2018-08-13T05:59:20.959Z,11444
2018-08-13T06:00:21.685Z,11020
2018-08-13T06:01:22.421Z,10668
2018-08-13T06:02:23.145Z,10668
2018-08-13T06:03:23.877Z,11040
2018-08-13T06:04:24.859Z,11636
2018-08-13T06:05:25.585Z,12336
2018-08-13T06:06:26.300Z,12968
2018-08-13T06:07:27.029Z,13580
2018-08-13T06:08:27.815Z,14208
2018-08-13T06:09:28.549Z,14812
2018-08-13T06:10:29.273Z,15400
2018-08-13T06:11:30.037Z,15964
2018-08-13T06:12:30.749Z,16580
2018-08-13T06:13:31.749Z,17344
2018-08-13T06:14:32.466Z,17248
2018-08-13T06:15:33.192Z,17056
2018-08-13T06:16:33.932Z,15824
2018-08-13T06:17:34.660Z,14672
2018-08-13T06:18:35.400Z,13508
2018-08-13T06:19:36.141Z,12952
2018-08-13T06:20:36.867Z,12696
2018-08-13T06:21:37.609Z,12456
2018-08-13T06:22:38.347Z,12140
2018-08-13T06:23:39.085Z,12336
2018-08-13T06:24:39.825Z,12292
2018-08-13T06:25:40.558Z,11788
2018-08-13T06:26:41.294Z,11024
2018-08-13T06:27:42.020Z,10236
2018-08-13T06:28:42.761Z,9764
2018-08-13T06:29:43.493Z,9748
2018-08-13T06:30:44.279Z,10224
2018-08-13T06:31:45.011Z,10924
2018-08-13T06:32:45.744Z,11776
2018-08-13T06:33:46.477Z,12480
2018-08-13T06:34:47.218Z,13008
2018-08-13T06:35:47.957Z,13448
2018-08-13T06:36:48.688Z,14684
2018-08-13T06:37:49.452Z,17440
2018-08-13T06:38:50.158Z,20448
2018-08-13T06:39:51.139Z,22528
2018-08-13T06:40:51.911Z,21792
2018-08-13T06:41:52.649Z,18176
2018-08-13T06:42:53.376Z,14208
2018-08-13T06:43:54.111Z,12568
2018-08-13T06:44:54.836Z,13064
2018-08-13T06:45:55.617Z,14488
2018-08-13T06:46:56.376Z,15676
2018-08-13T06:47:57.072Z,16236
2018-08-13T06:48:57.805Z,16080
2018-08-13T06:49:58.548Z,15900
2018-08-13T06:50:59.278Z,15572
2018-08-13T06:52:00.022Z,14916
2018-08-13T06:53:00.757Z,14000
2018-08-13T06:54:01.490Z,13468
2018-08-13T06:55:02.231Z,13276
2018-08-13T06:56:02.956Z,13276
2018-08-13T06:57:04.293Z,13304
2018-08-13T06:58:05.025Z,13256
2018-08-13T06:59:05.766Z,13228
2018-08-13T07:00:06.499Z,13080
2018-08-13T07:01:07.233Z,12780
2018-08-13T07:02:07.960Z,12372
2018-08-13T07:03:08.690Z,11964
2018-08-13T07:04:09.419Z,11768
2018-08-13T07:05:10.148Z,11740
2018-08-13T07:06:10.955Z,11756
2018-08-13T07:07:11.629Z,11696
2018-08-13T07:08:12.402Z,11560
2018-08-13T07:09:13.131Z,11364
2018-08-13T07:10:13.857Z,11048
2018-08-13T07:11:14.599Z,10856
2018-08-13T07:12:15.328Z,10880
2018-08-13T07:13:16.116Z,11132
2018-08-13T07:14:16.847Z,11624
2018-08-13T07:15:17.599Z,12212
2018-08-13T07:16:18.327Z,12732
2018-08-13T07:17:19.307Z,13084
2018-08-13T07:18:20.081Z,13268
2018-08-13T07:19:20.822Z,13284
2018-08-13T07:20:21.558Z,13100
2018-08-13T07:21:22.293Z,12764
2018-08-13T07:22:23.126Z,12444
2018-08-13T07:23:23.760Z,12140
2018-08-13T07:24:24.502Z,11904
2018-08-13T07:25:25.232Z,11800
2018-08-13T07:26:25.957Z,11844
2018-08-13T07:27:26.688Z,11992
2018-08-13T07:28:27.438Z,12180
2018-08-13T07:29:28.136Z,12436
2018-08-13T07:30:29.265Z,12848
2018-08-13T07:31:30.090Z,13336
2018-08-13T07:32:30.818Z,13832
2018-08-13T07:33:31.573Z,14428
2018-08-13T07:34:32.736Z,15124
2018-08-13T07:35:33.459Z,15904
2018-08-13T07:36:34.231Z,16716
2018-08-13T07:37:35.002Z,17696
2018-08-13T07:38:35.728Z,18336
2018-08-13T07:39:36.469Z,19008
2018-08-13T07:40:37.177Z,19424
2018-08-13T07:41:38.596Z,19456
2018-08-13T07:42:39.314Z,19008
2018-08-13T07:43:40.050Z,18432
2018-08-13T07:44:40.790Z,17792
2018-08-13T07:45:41.590Z,17088
2018-08-13T07:46:42.606Z,16492
2018-08-13T07:47:43.330Z,16092
2018-08-13T07:48:44.062Z,16108
2018-08-13T07:49:44.832Z,16484
2018-08-13T07:50:45.530Z,16932
2018-08-13T07:51:46.662Z,17164
2018-08-13T07:52:47.316Z,17008
2018-08-13T07:53:48.049Z,16632
2018-08-13T07:54:48.779Z,16224
2018-08-13T07:55:49.515Z,15684
2018-08-13T07:56:50.256Z,14772
2018-08-13T07:57:50.991Z,13424
2018-08-13T07:58:51.720Z,12268
2018-08-13T07:59:52.465Z,11424
2018-08-13T08:00:53.192Z,10848
2018-08-13T08:01:53.925Z,10560
2018-08-13T08:02:54.704Z,10476
2018-08-13T08:03:55.434Z,10488
2018-08-13T08:04:56.179Z,10564
2018-08-13T08:05:56.909Z,10608
2018-08-13T08:06:57.645Z,10680
2018-08-13T08:07:58.368Z,10764
2018-08-13T08:08:59.153Z,10752
2018-08-13T08:09:59.836Z,10608
2018-08-13T08:11:01.113Z,10324
2018-08-13T08:12:01.854Z,9984
2018-08-13T08:13:02.590Z,9652
2018-08-13T08:14:03.563Z,9376
2018-08-13T08:15:04.301Z,9212
2018-08-13T08:16:05.631Z,9184
2018-08-13T08:17:06.361Z,9328
2018-08-13T08:18:07.088Z,9600
2018-08-13T08:19:07.821Z,9844
2018-08-13T08:20:08.553Z,10012
2018-08-13T08:21:09.287Z,10124
2018-08-13T08:22:10.030Z,10108
2018-08-13T08:23:10.764Z,10032
2018-08-13T08:24:11.495Z,9988
2018-08-13T08:25:12.240Z,10064
2018-08-13T08:26:13.325Z,10312
2018-08-13T08:27:14.347Z,10744
2018-08-13T08:28:15.089Z,11312
2018-08-13T08:29:15.835Z,11892
2018-08-13T08:30:16.550Z,12468
2018-08-13T08:31:17.274Z,12884
2018-08-13T08:32:18.007Z,13144
2018-08-13T08:33:18.734Z,13480
2018-08-13T08:34:19.474Z,14052
2018-08-13T08:35:20.200Z,14536
2018-08-13T08:36:20.936Z,14860
2018-08-13T08:37:21.658Z,14952
2018-08-13T08:38:22.387Z,14716
2018-08-13T08:39:23.112Z,13944
2018-08-13T08:40:23.877Z,12676
2018-08-13T08:41:24.598Z,10980
2018-08-13T08:42:25.348Z,9056
2018-08-13T08:43:26.090Z,7476
2018-08-13T08:44:26.816Z,6948
2018-08-13T08:45:27.548Z,7312
2018-08-13T08:46:28.291Z,8124
2018-08-13T08:47:29.015Z,9168
2018-08-13T08:48:29.753Z,10764
2018-08-13T08:49:30.485Z,13312
2018-08-13T08:50:31.230Z,15504
2018-08-13T08:51:31.960Z,16248
2018-08-13T08:52:32.734Z,15756
2018-08-13T08:53:33.463Z,14804
2018-08-13T08:54:34.156Z,14176
2018-08-13T08:55:34.895Z,14280
2018-08-13T08:56:35.638Z,14300
2018-08-13T08:57:36.360Z,14180
2018-08-13T08:58:37.105Z,14500
2018-08-13T08:59:37.815Z,15688
2018-08-13T09:00:38.606Z,17324
2018-08-13T09:01:39.284Z,18848
2018-08-13T09:02:40.014Z,19872
2018-08-13T09:03:40.746Z,20896
2018-08-13T09:04:41.491Z,22176
2018-08-13T09:05:42.220Z,23616
2018-08-13T09:06:42.971Z,24800
2018-08-13T09:07:43.693Z,24608
2018-08-13T09:08:44.428Z,23040
2018-08-13T09:09:45.180Z,21152
2018-08-13T09:10:45.913Z,19776
2018-08-13T09:11:46.639Z,18688
2018-08-13T09:12:47.405Z,16812
2018-08-13T09:13:48.132Z,14720
2018-08-13T09:14:48.862Z,12708
2018-08-13T09:15:49.598Z,11388
2018-08-13T09:16:50.337Z,10768
2018-08-13T09:17:51.075Z,10828
2018-08-13T09:18:51.801Z,11012
2018-08-13T09:19:52.833Z,10664
2018-08-13T09:20:53.572Z,9584
2018-08-13T09:21:54.301Z,8368
2018-08-13T09:22:55.041Z,7280
2018-08-13T09:23:55.780Z,6620
2018-08-13T09:24:56.519Z,6336
2018-08-13T09:25:57.248Z,6372
2018-08-13T09:26:57.992Z,6824
2018-08-13T09:27:58.727Z,7368
2018-08-13T09:28:59.464Z,7820
2018-08-13T09:30:00.211Z,7916
2018-08-13T09:31:00.993Z,7840
2018-08-13T09:32:01.729Z,7704
2018-08-13T09:33:02.711Z,7596
2018-08-13T09:34:03.706Z,7472
2018-08-13T09:35:04.445Z,7408
2018-08-13T09:36:05.176Z,7592
2018-08-13T09:37:05.963Z,7684
2018-08-13T09:38:06.695Z,7728
2018-08-13T09:39:07.429Z,7728
2018-08-13T09:40:08.161Z,8176
2018-08-13T09:41:08.897Z,9196
2018-08-13T09:42:09.634Z,10504
2018-08-13T09:43:10.368Z,12368
2018-08-13T09:44:11.108Z,13860
2018-08-13T09:45:11.837Z,14768
2018-08-13T09:46:12.808Z,14940
2018-08-13T09:47:13.541Z,14600
2018-08-13T09:48:14.359Z,13992
2018-08-13T09:49:15.016Z,13556
2018-08-13T09:50:15.751Z,13324
2018-08-13T09:51:16.544Z,12976
2018-08-13T09:52:17.279Z,12264
2018-08-13T09:53:18.038Z,11808
2018-08-13T09:54:18.758Z,11920
2018-08-13T09:55:19.495Z,11832
2018-08-13T09:56:20.224Z,11872
2018-08-13T09:57:20.963Z,11840
2018-08-13T09:58:21.694Z,11816
2018-08-13T09:59:22.432Z,11708
2018-08-13T10:00:23.219Z,11624
2018-08-13T10:01:23.899Z,11544
2018-08-13T10:02:24.626Z,11320
2018-08-13T10:03:25.362Z,11000
2018-08-13T10:04:26.087Z,10576
2018-08-13T10:05:27.076Z,10272
2018-08-13T10:06:27.804Z,10380
2018-08-13T10:07:28.537Z,10800
2018-08-13T10:08:29.259Z,11368
2018-08-13T10:09:30.007Z,12012
2018-08-13T10:10:30.737Z,12912
2018-08-13T10:11:31.522Z,13964
2018-08-13T10:12:32.258Z,15324
2018-08-13T10:13:32.992Z,17284
2018-08-13T10:14:33.736Z,19680
2018-08-13T10:15:34.473Z,21824
2018-08-13T10:16:35.260Z,23456
2018-08-13T10:17:36.039Z,24128
2018-08-13T10:18:36.704Z,23936
2018-08-13T10:19:37.684Z,22976
2018-08-13T10:20:38.660Z,21888
2018-08-13T10:21:39.438Z,21312
2018-08-13T10:22:40.167Z,21472
2018-08-13T10:23:40.902Z,22208
2018-08-13T10:24:41.639Z,23200
2018-08-13T10:25:42.368Z,24224
2018-08-13T10:26:43.099Z,25216
2018-08-13T10:27:43.834Z,25632
2018-08-13T10:28:44.918Z,25792
2018-08-13T10:29:45.668Z,25472
2018-08-13T10:30:46.383Z,24800
2018-08-13T10:31:47.115Z,24064
2018-08-13T10:32:47.846Z,23520
2018-08-13T10:33:48.566Z,23264
2018-08-13T10:34:49.315Z,23200
2018-08-13T10:35:50.051Z,23232
2018-08-13T10:36:50.780Z,23456
2018-08-13T10:37:51.507Z,23744
2018-08-13T10:38:52.234Z,23840
2018-08-13T10:39:52.976Z,23840
2018-08-13T10:40:53.753Z,24032
2018-08-13T10:41:54.489Z,24128
2018-08-13T10:42:55.225Z,23968
2018-08-13T10:43:56.212Z,23488
2018-08-13T10:44:56.999Z,22944
2018-08-13T10:45:57.674Z,22240
2018-08-13T10:46:58.405Z,21344
2018-08-13T10:47:59.132Z,20256
2018-08-13T10:48:59.879Z,19104
2018-08-13T10:50:00.602Z,18208
2018-08-13T10:51:01.336Z,17568
2018-08-13T10:52:02.075Z,17068
2018-08-13T10:53:02.815Z,16812
2018-08-13T10:54:03.547Z,16520
2018-08-13T10:55:04.276Z,16128
2018-08-13T10:56:05.010Z,15656
2018-08-13T10:57:05.747Z,15272
2018-08-13T10:58:06.736Z,14944
2018-08-13T10:59:07.468Z,14632
2018-08-13T11:00:08.201Z,14332
2018-08-13T11:01:08.971Z,14000
2018-08-13T11:02:09.659Z,14144
2018-08-13T11:03:10.437Z,15352
2018-08-13T11:04:11.161Z,17304
2018-08-13T11:05:11.894Z,18304
2018-08-13T11:06:12.631Z,17512
2018-08-13T11:07:13.358Z,15508
2018-08-13T11:08:14.145Z,13960
2018-08-13T11:09:14.896Z,14784
2018-08-13T11:10:15.635Z,17092
2018-08-13T11:11:16.355Z,19680
2018-08-13T11:12:17.086Z,20512
2018-08-13T11:13:17.818Z,20448
2018-08-13T11:14:18.544Z,20800
2018-08-13T11:15:19.259Z,21376
2018-08-13T11:16:20.001Z,21248
2018-08-13T11:17:20.741Z,20512
2018-08-13T11:18:21.479Z,20320
2018-08-13T11:19:22.219Z,20000
2018-08-13T11:20:22.963Z,19200
2018-08-13T11:21:23.689Z,18656
2018-08-13T11:22:24.426Z,18592
2018-08-13T11:23:25.152Z,18336
2018-08-13T11:24:25.896Z,18240
2018-08-13T11:25:26.675Z,18240
2018-08-13T11:26:27.355Z,18080
2018-08-13T11:27:28.094Z,18080
2018-08-13T11:28:28.838Z,18048
2018-08-13T11:29:29.616Z,17392
2018-08-13T11:30:30.354Z,16752
2018-08-13T11:31:31.095Z,16584
2018-08-13T11:32:31.821Z,16604
2018-08-13T11:33:32.554Z,16832
2018-08-13T11:34:33.290Z,17760
2018-08-13T11:35:34.042Z,19008
2018-08-13T11:36:34.765Z,20416
2018-08-13T11:37:35.507Z,21376
2018-08-13T11:38:36.238Z,21504
2018-08-13T11:39:36.972Z,21056
2018-08-13T11:40:37.720Z,21056
2018-08-13T11:41:38.446Z,21312
2018-08-13T11:42:39.234Z,21568
2018-08-13T11:43:40.233Z,22080
2018-08-13T11:44:40.965Z,23456
2018-08-13T11:45:41.694Z,27328
2018-08-13T11:46:42.956Z,33408
2018-08-13T11:47:43.742Z,41504
2018-08-13T11:48:44.478Z,42176
2018-08-13T11:49:45.206Z,38880
2018-08-13T11:50:45.952Z,35488
2018-08-13T11:51:46.677Z,32544
2018-08-13T11:52:47.460Z,31296
2018-08-13T11:53:48.607Z,30720
2018-08-13T11:54:49.863Z,30432
2018-08-13T11:55:51.307Z,31296
2018-08-13T11:56:52.080Z,33696
2018-08-13T11:57:52.806Z,36000
2018-08-13T11:58:53.839Z,65408
2018-08-13T11:59:54.581Z,38912
2018-08-13T12:00:55.358Z,47776
2018-08-13T12:01:56.099Z,79776
2018-08-13T12:02:56.775Z,45472
2018-08-13T12:03:57.565Z,49248
2018-08-13T12:04:58.297Z,72928
2018-08-13T12:05:59.035Z,115264
2018-08-13T12:06:59.777Z,110368
2018-08-13T12:08:00.741Z,53120
2018-08-13T12:09:01.726Z,40512
2018-08-13T12:10:02.718Z,33248
2018-08-13T12:11:03.700Z,35808
2018-08-13T12:12:04.424Z,35264
2018-08-13T12:13:05.149Z,54784
2018-08-13T12:14:05.923Z,72832
2018-08-13T12:15:06.620Z,55424
2018-08-13T12:16:07.355Z,58336
2018-08-13T12:17:08.096Z,59232
2018-08-13T12:18:08.814Z,91488
2018-08-13T12:19:09.555Z,110176
2018-08-13T12:20:10.544Z,109152
2018-08-13T12:21:11.276Z,104640
2018-08-13T12:22:12.614Z,100608
2018-08-13T12:23:13.435Z,99008
2018-08-13T12:24:14.179Z,99296
2018-08-13T12:25:14.905Z,98112
2018-08-13T12:26:15.652Z,95552
2018-08-13T12:27:16.373Z,92800
2018-08-13T12:28:17.112Z,93312
2018-08-13T12:29:18.389Z,95424
2018-08-13T12:30:19.114Z,96832
2018-08-13T12:31:19.844Z,94784
2018-08-13T12:32:20.683Z,93664
2018-08-13T12:33:21.473Z,90944
2018-08-13T12:34:22.204Z,74144
2018-08-13T12:35:22.957Z,88608
2018-08-13T12:36:23.702Z,84576
2018-08-13T12:37:25.346Z,81760
2018-08-13T12:38:26.118Z,81888
2018-08-13T12:39:26.860Z,21248
2018-08-13T12:40:27.596Z,83104
2018-08-13T12:41:28.334Z,85088
2018-08-13T12:42:29.159Z,18656
2018-08-13T12:43:29.884Z,29440
2018-08-13T12:44:30.621Z,23648
2018-08-13T12:45:31.458Z,87456
2018-08-13T12:46:32.211Z,71968
2018-08-13T12:47:33.763Z,76800
2018-08-13T12:48:34.918Z,69056
2018-08-13T12:49:35.644Z,42976
2018-08-13T12:50:36.365Z,56512
2018-08-13T12:51:37.116Z,56352
2018-08-13T12:52:38.244Z,96864
2018-08-13T12:53:39.032Z,89088
2018-08-13T12:54:39.772Z,92608
2018-08-13T12:55:40.515Z,93280
2018-08-13T12:56:41.251Z,37824
2018-08-13T12:57:42.032Z,32192
2018-08-13T12:58:42.767Z,22720
2018-08-13T12:59:43.502Z,17284
2018-08-13T13:00:45.221Z,15332
2018-08-13T13:01:46.337Z,17000
2018-08-13T13:02:47.165Z,18368
2018-08-13T13:03:47.908Z,19072
2018-08-13T13:04:48.641Z,19968
2018-08-13T13:05:49.382Z,23776
2018-08-13T13:06:50.121Z,22464
2018-08-13T13:07:51.209Z,26368
2018-08-13T13:08:51.974Z,31488
2018-08-13T13:09:52.704Z,32288
2018-08-13T13:10:53.443Z,31488
2018-08-13T13:11:54.188Z,34464
2018-08-13T13:12:54.927Z,37472
2018-08-13T13:13:55.669Z,62176
2018-08-13T13:14:56.658Z,69536
2018-08-13T13:15:57.394Z,50784
2018-08-13T13:16:58.131Z,55744
2018-08-13T13:17:58.858Z,49120
2018-08-13T13:18:59.647Z,57504
2018-08-13T13:20:00.390Z,79008
2018-08-13T13:21:01.124Z,50688
2018-08-13T13:22:02.273Z,48992
2018-08-13T13:23:03.046Z,41216
2018-08-13T13:24:03.882Z,40640
2018-08-13T13:25:05.018Z,39808
2018-08-13T13:26:05.741Z,37216
2018-08-13T13:27:06.474Z,34368
2018-08-13T13:28:07.205Z,31776
2018-08-13T13:29:07.952Z,29088
2018-08-13T13:30:08.943Z,25888
2018-08-13T13:31:09.678Z,23296
2018-08-13T13:32:10.435Z,20864
2018-08-13T13:33:11.160Z,18816
2018-08-13T13:34:11.890Z,17440
2018-08-13T13:35:12.885Z,16692
2018-08-13T13:36:13.620Z,16220
2018-08-13T13:37:14.349Z,15960
2018-08-13T13:38:15.089Z,15544
2018-08-13T13:39:15.825Z,15216
2018-08-13T13:40:16.833Z,15452
2018-08-13T13:41:17.578Z,16236
2018-08-13T13:42:18.694Z,16460
2018-08-13T13:43:19.425Z,15776
2018-08-13T13:44:20.215Z,14536
2018-08-13T13:45:21.114Z,13588
2018-08-13T13:46:21.888Z,13124
2018-08-13T13:47:22.839Z,13028